Home > Products > Valid Products > TAF

000
FTUS42 KILM 222300
TAFCRE
TAF
KCRE 222325Z 2300/2324 04008KT 4SM BR VCSH OVC004
     FM230300 05003KT 3SM BR VCSH OVC003
     FM231500 16005KT P6SM VCSH BKN006 OVC035
     FM231900 17008KT 4SM -RA BR OVC007=



000
FTUS42 KILM 222300
TAFFLO
TAF
KFLO 222325Z 2300/2324 04007KT 3SM -RA BR OVC003
     FM230400 05005KT 1SM BR OVC003
     FM231300 VRB03KT 3SM BR VCSH OVC004
     FM231900 11004KT 2SM -RA BR OVC007=



000
FTUS42 KILM 222300
TAFLBT
TAF
KLBT 222325Z 2300/2324 03008KT 3SM BR OVC003
     FM230400 VRB04KT 1SM BR OVC003
     FM231300 06002KT 3SM BR VCSH OVC004
     FM231700 VRB04KT 4SM -RA BR OVC007=



000
FTUS42 KILM 222300
TAFMYR
TAF
KMYR 222325Z 2300/2324 35010KT 4SM RA BR OVC004
     FM230300 05004KT 3SM BR VCSH OVC003
     FM231500 16007KT P6SM VCSH BKN006 OVC035
     FM231900 15009KT 4SM -RA BR BKN007 OVC015
      AMD LTD TO CLD VIS AND WIND 2304/2311=



000
FTUS42 KILM 222300
TAFILM
TAF
KILM 222325Z 2300/2324 36007KT 4SM -RA BR OVC004
      TEMPO 2300/2301 2SM RA BR OVC004
     FM230500 04003KT 3SM BR VCSH OVC003
     FM231500 13004KT P6SM VCSH OVC005
     FM231900 18005KT 6SM -RA BR OVC007=



000
FTUS42 KILM 221800 AAA
TAFLBT
TAF AMD
KLBT 221858Z 2219/2318 04007KT 6SM -RA BR OVC005
      TEMPO 2220/2224 3SM -RA BR OVC005
     FM230700 VRB03KT 3SM BR OVC004=



000
FTUS42 KILM 221700
TAFCRE
TAF
KCRE 221727Z 2218/2318 35006KT P6SM OVC005
      TEMPO 2219/2223 3SM -RA BR OVC007
     FM222300 02005KT 2SM RA BR OVC004
     FM230300 05003KT 3SM BR VCSH OVC003
     FM231500 16005KT P6SM VCSH BKN006 OVC035=



000
FTUS42 KILM 221700
TAFILM
TAF
KILM 221727Z 2218/2318 35006KT P6SM OVC005
      TEMPO 2221/2301 4SM -RA BR OVC007
     FM230100 01005KT 2SM RA BR OVC004
     FM230500 05003KT 3SM BR VCSH OVC003
     FM231500 13004KT P6SM VCSH OVC006=



000
FTUS42 KILM 221700
TAFFLO
TAF
KFLO 221727Z 2218/2318 04007KT 6SM -RA BR OVC005
      TEMPO 2219/2223 3SM -RA BR OVC006
     FM230700 VRB03KT 3SM BR OVC004=



000
FTUS42 KILM 221700
TAFLBT
TAF
KLBT 221727Z 2218/2318 04007KT 6SM -RA BR OVC006
      TEMPO 2220/2224 3SM -RA BR OVC005
     FM230700 VRB03KT 3SM BR OVC004=



000
FTUS42 KILM 221700
TAFMYR
TAF
KMYR 221727Z 2218/2318 35007KT 4SM -RA BR OVC004
      TEMPO 2218/2222 2SM -RA BR OVC006
     FM222200 02007KT 2SM RA BR OVC004
     FM230300 05004KT 3SM BR VCSH OVC003
     FM231500 16007KT P6SM VCSH BKN006 OVC035=



000
FTUS42 KILM 221100
TAFLBT
TAF
KLBT 221130Z 2212/2312 36008KT 6SM BR VCSH OVC007
      TEMPO 2212/2214 1SM +RA BR OVC005
     FM222000 36005KT P6SM OVC010
     FM222300 03004KT 3SM BR SCT005 OVC008
     FM230800 VRB03KT 2SM BR OVC004=



000
FTUS42 KILM 221100
TAFCRE
TAF
KCRE 221130Z 2212/2312 36006KT 3SM BR VCSH OVC003
      TEMPO 2212/2214 2SM SHRA BR OVC005
     FM221600 36005KT P6SM SCT006 OVC008
     FM222100 01003KT P6SM OVC010
     FM230400 03003KT 3SM BR VCSH OVC006=



000
FTUS42 KILM 221100
TAFMYR
TAF
KMYR 221130Z 2212/2312 01008KT 3SM BR VCSH OVC003
      TEMPO 2212/2213 2SM SHRA BR OVC005
     FM221500 36007KT P6SM SCT006 OVC008
     FM222100 01006KT P6SM OVC010
     FM230400 04004KT 4SM BR VCSH OVC006=



000
FTUS42 KILM 221100
TAFILM
TAF
KILM 221130Z 2212/2312 01007KT 3SM BR VCSH OVC003
      TEMPO 2212/2215 2SM SHRA BR OVC005
     FM221600 33006KT P6SM SCT005 OVC007
     FM222300 35004KT P6SM OVC010
     FM230400 36004KT 3SM BR VCSH OVC006=



000
FTUS42 KILM 221100
TAFFLO
TAF
KFLO 221130Z 2212/2312 02008KT 6SM BR VCSH OVC006
     FM222000 02006KT P6SM OVC010
     FM222300 36004KT 3SM BR SCT005 OVC008
     FM230800 VRB03KT 2SM BR OVC004=



000
FTUS42 KILM 220900 AAA
TAFFLO
TAF AMD
KFLO 220935Z 2210/2306 02008KT 4SM -RA BR BKN005 OVC012
     FM221500 02007KT P6SM OVC008
     FM222300 36004KT 2SM BR OVC004=



000
FTUS42 KILM 220900 AAA
TAFLBT
TAF AMD
KLBT 220934Z 2210/2306 03009KT 4SM -RA BR BKN006 OVC012
     FM221600 01007KT P6SM OVC008
     FM222300 02005KT 2SM BR OVC004=



000
FTUS42 KILM 220900 CCA
TAFFLO
TAF COR
KFLO 220933Z 2206/2306 05009KT 5SM -RA BR SCT010 OVC020
      TEMPO 2207/2209 6SM BR BKN008
     FM220900 03010KT 4SM -RA BR BKN008 OVC012
     FM221500 02007KT P6SM OVC008
     FM222300 36004KT 2SM BR OVC004=



000
FTUS42 KILM 220800 AAA
TAFMYR
TAF AMD
KMYR 220851Z 2209/2306 36008KT 6SM -DZ BR OVC005
      TEMPO 2209/2212 4SM SHRA BR OVC004
     FM221600 35008KT P6SM OVC006
     FM230000 36006KT 3SM BR OVC004
      AMD LTD TO CLD VIS AND WIND TIL 221100=



000
FTUS42 KILM 220800 AAA
TAFCRE
TAF AMD
KCRE 220849Z 2209/2306 36008KT 6SM -DZ BR OVC004
      TEMPO 2209/2213 4SM SHRA OVC005
     FM221600 36006KT P6SM OVC006
     FM230000 01005KT 2SM BR OVC004=



000
FTUS42 KILM 220800 AAA
TAFILM
TAF AMD
KILM 220848Z 2209/2306 01008KT 6SM -DZ BR OVC004
      TEMPO 2209/2213 5SM -RA BR OVC005
     FM221700 36007KT P6SM OVC006
     FM230000 35004KT 2SM BR OVC004=



000
FTUS42 KILM 220600 CCA
TAFMYR
TAF COR
KMYR 220619Z 2206/2306 03010KT 5SM -RA BR BKN008 OVC012
      TEMPO 2206/2208 6SM -RA BR
     FM221600 35008KT P6SM OVC006
     FM230000 36006KT 3SM BR OVC004
      AMD LTD TO CLD VIS AND WIND TIL 221100=



000
FTUS42 KILM 220500 CCA
TAFILM
TAF COR
KILM 220554Z 2206/2306 03008KT 5SM -RA BR BKN008 OVC012
      TEMPO 2206/2208 3SM RA BR OVC004
     FM221700 36007KT P6SM OVC006
     FM230000 35004KT 2SM BR OVC004=



000
FTUS42 KILM 220500
TAFCRE
TAF
KCRE 220524Z 2206/2306 02008KT 5SM -RA BR BKN008 OVC012
      TEMPO 2206/2208 6SM -RA BR SCT008 OVC012
     FM221600 36006KT P6SM OVC006
     FM230000 01005KT 2SM BR OVC004=



000
FTUS42 KILM 220500
TAFLBT
TAF
KLBT 220524Z 2206/2306 05008KT 6SM -RA BR SCT010 OVC020
      TEMPO 2208/2210 OVC010
     FM221000 03009KT 4SM -RA BR BKN008 OVC012
     FM221600 01007KT P6SM OVC008
     FM222300 02005KT 2SM BR OVC004=



000
FTUS42 KILM 220500
TAFILM
TAF
KILM 220524Z 2206/2306 03008KT 5SM -RA BR BKN008 OVC012
      TEMPO 2206/2208 6SM -RA BR
     FM221700 36007KT P6SM OVC006
     FM230000 35004KT 2SM BR OVC004=



000
FTUS42 KILM 220500
TAFMYR
TAF
KMYR 220524Z 2206/2306 03010KT 5SM -RA BR BKN008 OVC012
      TEMPO 2206/2208 6SM -RA BR SCT008 OVC012
     FM221600 35008KT P6SM OVC006
     FM230000 36006KT 3SM BR OVC004
      AMD LTD TO CLD VIS AND WIND TIL 221100=



000
FTUS42 KILM 220500
TAFFLO
TAF
KFLO 220524Z 2206/2306 05009KT 5SM -RA BR SCT010 OVC020
      TEMPO 2207/2209 6SM BR OVC010
     FM220900 03010KT 4SM -RA BR BKN008 OVC012
     FM221500 02007KT P6SM OVC008
     FM222300 36004KT 2SM BR OVC004=



000
FTUS42 KILM 212300 CCA
TAFFLO
TAF COR
KFLO 212359Z 2200/2224 06008KT P6SM BKN025 OVC070
     FM220400 04009KT 6SM -RA BR SCT010 BKN020
     FM220800 03010KT 4SM -RA BR SCT004 BKN008 OVC012
     FM221500 02008KT P6SM OVC008=



000
FTUS42 KILM 212300 CCA
TAFILM
TAF COR
KILM 212359Z 2200/2224 04008KT P6SM -RA BKN025 OVC060
      TEMPO 2204/2206 FEW008 BKN015
     FM220600 03009KT 6SM -RA BR BKN008 OVC015
     FM221000 02006KT 5SM -RA BR BKN004 OVC008
     FM221600 35008KT P6SM OVC007=



000
FTUS42 KILM 212300 CCA
TAFFLO
TAF COR
KFLO 212359Z 2200/2224 06008KT P6SM BKN025 OVC070
     FM220400 04009KT 6SM -RA BR SCT010 BKN020
     FM220800 03010KT 4SM -RA BR SCT004 BKN008 OVC012
     FM221500 02008KT P6SM OVC008=



000
FTUS42 KILM 212300 CCA
TAFILM
TAF COR
KILM 212359Z 2200/2224 04008KT P6SM -RA BKN025 OVC060
      TEMPO 2204/2206 FEW008 BKN015
     FM220600 03009KT 6SM -RA BR BKN008 OVC015
     FM221000 02006KT 5SM -RA BR BKN004 OVC008
     FM221600 35008KT P6SM OVC007=



000
FTUS42 KILM 212300
TAFLBT
TAF
KLBT 212322Z 2200/2224 05007KT P6SM BKN035 OVC070
     FM220600 04008KT 6SM -RA BR SCT010 BKN020
     FM220900 03009KT 4SM -RA BR FEW004 BKN008 OVC012
     FM221600 01007KT P6SM OVC008=



000
FTUS42 KILM 212300
TAFCRE
TAF
KCRE 212322Z 2200/2224 04009KT P6SM -RA BKN025 OVC060
      TEMPO 2203/2205 SCT008 BKN015
     FM220500 05009KT 6SM -RA BR BKN008 OVC012
     FM221000 02006KT 5SM -RA BR BKN004 OVC008
     FM221500 36007KT P6SM OVC007=



000
FTUS42 KILM 212300
TAFFLO
TAF
KFLO 212322Z 2200/2224 06008KT P6SM BKN035 OVC070
     FM220400 04009KT 6SM -RA BR SCT010 BKN020
     FM220800 03010KT 4SM -RA BR SCT004 BKN008 OVC012
     FM221500 02008KT P6SM OVC008=



000
FTUS42 KILM 212300
TAFILM
TAF
KILM 212322Z 2200/2224 04008KT P6SM -RA BKN030 OVC060
      TEMPO 2204/2206 FEW008 BKN015
     FM220600 03009KT 6SM -RA BR BKN008 OVC015
     FM221000 02006KT 5SM -RA BR BKN004 OVC008
     FM221600 35008KT P6SM OVC007=



000
FTUS42 KILM 212300
TAFMYR
TAF
KMYR 212322Z 2200/2224 04010KT P6SM -RA BKN020 OVC060
      TEMPO 2203/2205 SCT008 BKN015
     FM220500 03009KT 6SM -RA BR BKN008 OVC012
     FM221000 01008KT 5SM -RA BR BKN004 OVC008
     FM221500 35009KT P6SM OVC007
      AMD LTD TO CLD VIS AND WIND 2204/2211=



000
FTUS42 KILM 211700
TAFCRE
TAF
KCRE 211720Z 2118/2218 03009KT P6SM VCSH SCT035 BKN060 OVC100
     FM212000 03009KT P6SM VCSH BKN035 OVC060
     FM220100 03009KT 6SM -RA BR SCT006 BKN018 OVC040
     FM220300 04009KT 5SM -RA BR BKN006 OVC015=



000
FTUS42 KILM 211700
TAFLBT
TAF
KLBT 211720Z 2118/2218 04008KT P6SM SCT035 BKN050 OVC100
     FM212300 04008KT P6SM VCSH SCT020 BKN035 OVC050
     FM220400 03009KT 6SM -RA BR SCT006 OVC018
     FM220600 02009KT 4SM -RA BR BKN006 OVC015=



000
FTUS42 KILM 211700
TAFFLO
TAF
KFLO 211720Z 2118/2218 03007KT P6SM SCT035 BKN060 OVC100
     FM212300 05007KT P6SM VCSH SCT020 BKN035 OVC050
     FM220400 03008KT 6SM -RA BR SCT006 OVC018
     FM220600 03008KT 4SM -RA BR BKN006 OVC015=



000
FTUS42 KILM 211700
TAFILM
TAF
KILM 211720Z 2118/2218 03009KT P6SM VCSH SCT035 BKN060 OVC100
     FM212200 03009KT P6SM VCSH BKN035 OVC060
     FM220300 03009KT P6SM -RA SCT006 BKN018 OVC040
     FM220600 04009KT 5SM -RA BR BKN007 OVC015=



000
FTUS42 KILM 211700
TAFMYR
TAF
KMYR 211720Z 2118/2218 03009KT P6SM VCSH SCT035 BKN060 OVC100
     FM212000 03009KT P6SM VCSH BKN035 OVC060
     FM220100 03009KT 6SM -RA BR SCT006 BKN018 OVC040
     FM220300 04009KT 5SM -RA BR BKN005 OVC015=



000
FTUS42 KILM 211100
TAFLBT
TAF
KLBT 211124Z 2112/2212 04006KT P6SM SCT030 BKN050 OVC100
     FM212300 05007KT P6SM -RA SCT010 OVC035
     FM220400 03007KT 5SM -RA BR BKN006 OVC015=



000
FTUS42 KILM 211100
TAFFLO
TAF
KFLO 211124Z 2112/2212 04006KT P6SM SCT030 BKN060 OVC100
     FM212300 05007KT P6SM -RA SCT010 OVC035
     FM220400 03007KT 5SM -RA BR BKN008 OVC015=



000
FTUS42 KILM 211100
TAFCRE
TAF
KCRE 211124Z 2112/2212 03009KT P6SM VCSH SCT035 BKN060 OVC100
     FM211800 03009KT 5SM -RA BKN035 OVC060
     FM220000 03009KT 4SM -RA BR SCT008 BKN018 OVC040
     FM220500 04009KT 5SM BR VCSH BKN008 OVC015=



000
FTUS42 KILM 211100
TAFMYR
TAF
KMYR 211124Z 2112/2212 03010KT P6SM VCSH SCT035 BKN060 OVC100
     FM211800 03009KT 5SM -RA BKN035 OVC060
     FM220000 03009KT 4SM -RA BR SCT008 BKN018 OVC040
     FM220500 04009KT 5SM BR VCSH BKN008 OVC015=



000
FTUS42 KILM 211100
TAFILM
TAF
KILM 211124Z 2112/2212 03009KT P6SM VCSH SCT035 BKN060 OVC100
     FM212200 03009KT P6SM -RA BKN035 OVC060
     FM220300 03009KT 6SM -RA BR BKN018 OVC040
     FM220800 04009KT 5SM -RA BR BKN008 OVC015=



000
FTUS42 KILM 210500
TAFMYR
TAF
KMYR 210523Z 2106/2206 02008KT 6SM BR FEW008 BKN035 OVC060
     FM211500 03011KT P6SM -RA BKN020 BKN050
     FM212300 03010KT 6SM -RA BR SCT008 OVC015
      AMD LTD TO CLD VIS AND WIND TIL 211100=



000
FTUS42 KILM 210500
TAFLBT
TAF
KLBT 210523Z 2106/2206 05005KT 4SM BR FEW009 SCT030 BKN060
     FM211400 04008KT P6SM SCT030 BKN050
     FM211900 05007KT P6SM -RA BKN030 OVC050
     FM220300 04008KT 6SM -RA BR SCT008 OVC015=



000
FTUS42 KILM 210500
TAFFLO
TAF
KFLO 210523Z 2106/2206 04006KT 4SM BR FEW009 SCT030 BKN060
     FM211500 05008KT P6SM -RA BKN025 BKN050
     FM220300 03008KT 6SM -RA BR SCT008 OVC015=



000
FTUS42 KILM 210500
TAFILM
TAF
KILM 210523Z 2106/2206 03006KT 6SM BR FEW008 BKN035 OVC060
     FM211400 04008KT P6SM SCT020 BKN050
     FM211800 04009KT P6SM -RA BKN020 OVC050
     FM220000 03008KT 6SM -RA BR SCT008 OVC015=



000
FTUS42 KILM 210500
TAFCRE
TAF
KCRE 210523Z 2106/2206 03007KT 6SM BR FEW008 BKN035 OVC060
     FM211500 04009KT P6SM -RA BKN020 BKN050
     FM212300 04008KT 6SM -RA BR SCT008 OVC015=



000
FTUS42 KILM 202300
TAFFLO
TAF
KFLO 202320Z 2100/2124 05007KT P6SM FEW010 OVC030
     FM210500 02005KT 4SM BR FEW010 SCT030 BKN060
     FM211500 05008KT P6SM -RA BKN030 BKN050=



000
FTUS42 KILM 202300
TAFCRE
TAF
KCRE 202320Z 2100/2124 04008KT P6SM SCT010 BKN030 OVC060
      TEMPO 2100/2103 BKN010
     FM210600 03007KT P6SM FEW008 BKN030 OVC060
     FM211500 05009KT P6SM -RA BKN020 BKN050=



000
FTUS42 KILM 202300
TAFILM
TAF
KILM 202320Z 2100/2124 04007KT P6SM SCT010 BKN030 OVC060
      TEMPO 2100/2103 BKN010
     FM210600 02006KT P6SM FEW008 BKN030 OVC060
     FM211500 04009KT P6SM SCT020 BKN050
     FM211800 04008KT P6SM -RA BKN020 OVC050=



000
FTUS42 KILM 202300
TAFMYR
TAF
KMYR 202320Z 2100/2124 03009KT P6SM SCT010 BKN030 OVC060
      TEMPO 2100/2103 BKN010
     FM210600 02008KT P6SM FEW008 BKN030 OVC060
     FM211500 03011KT P6SM -RA BKN020 BKN050
      AMD LTD TO CLD VIS AND WIND 2104/2111=



000
FTUS42 KILM 202300
TAFLBT
TAF
KLBT 202320Z 2100/2124 06006KT P6SM FEW010 OVC030
     FM210500 04004KT 4SM BR FEW010 SCT030 BKN060
     FM211400 05008KT P6SM SCT025 BKN050
     FM211800 05007KT P6SM -RA BKN025 OVC050=



000
FTUS42 KILM 202100 AAA
TAFMYR
TAF AMD
KMYR 202151Z 2022/2118 04009KT P6SM BKN020 OVC050
     FM211000 01006KT 4SM BR SCT006 SCT015 BKN060
     FM211500 03010KT P6SM SCT040 BKN060=



000
FTUS42 KILM 202100 AAA
TAFILM
TAF AMD
KILM 202109Z 2021/2118 05008KT P6SM SCT010 OVC030
      TEMPO 2021/2022 6SM -RA BR BKN010
     FM211000 01006KT 4SM BR SCT006 SCT020 BKN050
     FM211500 04009KT P6SM SCT040 BKN060=



000
FTUS42 KILM 202100 AAA
TAFFLO
TAF AMD
KFLO 202108Z 2021/2118 05008KT P6SM FEW010 OVC030
     FM210500 04003KT 4SM BR SCT020 BKN060
     FM211500 03008KT P6SM SCT040 BKN060=



000
FTUS42 KILM 202100 AAA
TAFLBT
TAF AMD
KLBT 202106Z 2021/2118 05006KT 6SM BR SCT010 OVC030
      TEMPO 2021/2022 BKN010
     FM210500 04003KT 4SM BR SCT020 BKN060
     FM211500 03008KT P6SM SCT040 BKN060=



000
FTUS42 KILM 202100 AAA
TAFCRE
TAF AMD
KCRE 202105Z 2021/2118 05008KT P6SM FEW010 BKN020 OVC035
     FM211000 02006KT 4SM BR SCT006 SCT015 BKN060
     FM211500 04008KT P6SM SCT040 BKN060=



000
FTUS42 KILM 201700
TAFCRE
TAF
KCRE 201725Z 2018/2118 05008KT 4SM BR BKN006 BKN035 OVC050
      TEMPO 2018/2022 3SM -RA BR SCT005 OVC030
     FM211000 02006KT 4SM BR SCT006 SCT015 BKN060
     FM211500 04008KT P6SM SCT040 BKN060=



000
FTUS42 KILM 201700
TAFMYR
TAF
KMYR 201725Z 2018/2118 04008KT 4SM BR BKN005 BKN035 OVC050
      TEMPO 2018/2022 2SM -RA BR SCT005 OVC030
     FM211000 02006KT 4SM BR SCT006 SCT015 BKN060
     FM211500 03010KT P6SM SCT040 BKN060=



000
FTUS42 KILM 201700
TAFILM
TAF
KILM 201725Z 2018/2118 04007KT 6SM -RA SCT008 OVC050
     FM202100 03006KT 4SM BR BKN008 OVC030
      TEMPO 2021/2101 3SM -RA BR SCT008 OVC030
     FM211000 01006KT 4SM BR SCT006 SCT020 BKN050
     FM211500 04009KT P6SM SCT040 BKN060=



000
FTUS42 KILM 201700
TAFFLO
TAF
KFLO 201725Z 2018/2118 05007KT 6SM BR SCT010 OVC025
      TEMPO 2018/2021 5SM -RA BKN010
     FM202100 04006KT 6SM BR BKN008 OVC030
     FM210500 04003KT 4SM BR SCT020 BKN060
     FM211500 03008KT P6SM SCT040 BKN060=



000
FTUS42 KILM 201700
TAFLBT
TAF
KLBT 201725Z 2018/2118 04006KT 6SM BR SCT009 OVC030
      TEMPO 2018/2021 5SM -RA BKN009
     FM210500 04003KT 4SM BR SCT020 BKN060
     FM211500 03008KT P6SM SCT040 BKN060=



000
FTUS42 KILM 201100
TAFLBT
TAF
KLBT 201136Z 2012/2112 06005KT 6SM -RA BR SCT040 OVC080
     FM201800 05006KT 6SM BR SCT012 BKN025 OVC040
      TEMPO 2018/2021 04007KT 4SM -RA BR BKN012 OVC020
     FM210800 04005KT 5SM BR BKN025 OVC070=



000
FTUS42 KILM 201100
TAFFLO
TAF
KFLO 201136Z 2012/2112 05005KT 6SM -RA SCT040 OVC070
     FM201600 05006KT 5SM -RA BKN025 OVC040
     FM201800 04007KT 4SM -RA BR BKN012 OVC020
     FM202100 04005KT 5SM BR BKN012 OVC020
     FM210800 04005KT 6SM BR BKN025 OVC070=



000
FTUS42 KILM 201100
TAFCRE
TAF
KCRE 201136Z 2012/2112 05005KT 6SM -RA SCT040 OVC070
      TEMPO 2013/2016 5SM RA SCT015 BKN040
     FM201600 05006KT 4SM -RA BKN018 OVC040
     FM201800 05006KT 4SM -RA BR SCT007 BKN012 OVC020
     FM202000 03006KT 3SM BR BKN007 BKN020 OVC050
     FM211000 02006KT 4SM BR SCT006 SCT015 BKN060=



000
FTUS42 KILM 201100
TAFILM
TAF
KILM 201136Z 2012/2112 04007KT 6SM -RA SCT050 OVC080
      TEMPO 2014/2017 5SM RA SCT020 BKN050
     FM201700 03006KT 4SM -RA BKN020 OVC040
     FM201900 03006KT 4SM -RA BR SCT006 BKN012 OVC020
     FM202200 06006KT 3SM BR BKN006 BKN020 OVC050
     FM211000 01006KT 4SM BR SCT006 SCT020 BKN050=



000
FTUS42 KILM 201100
TAFMYR
TAF
KMYR 201136Z 2012/2112 04006KT 6SM -RA SCT040 OVC070
      TEMPO 2013/2016 5SM RA SCT015 BKN040
     FM201600 04007KT 4SM -RA BKN018 OVC040
     FM201800 04007KT 4SM -RA BR SCT007 BKN012 OVC020
     FM202000 04008KT 3SM BR BKN007 BKN020 OVC050
     FM211000 36007KT 4SM BR SCT006 SCT015 BKN060=



000
FTUS42 KILM 200900 AAA
TAFILM
TAF AMD
KILM 200915Z 2009/2106 04006KT P6SM BKN120
     FM201100 05007KT 6SM -RA BKN040 OVC100
      TEMPO 2014/2017 4SM RA SCT020
     FM201700 03008KT 6SM -RA BKN020 OVC040
     FM202300 02005KT P6SM FEW015 BKN025=



000
FTUS42 KILM 200900 AAA
TAFMYR
TAF AMD
KMYR 200914Z 2009/2106 02006KT 6SM -RA OVC080
     FM201100 04007KT 6SM -RA BKN040 OVC060
      TEMPO 2013/2016 4SM RA SCT015
     FM201600 01009KT 6SM -RA BKN015 OVC040
     FM202200 02006KT P6SM SCT015 BKN025
      AMD LTD TO CLD VIS AND WIND TIL 201100=



000
FTUS42 KILM 200900 AAA
TAFCRE
TAF AMD
KCRE 200913Z 2009/2106 03005KT 6SM -RA BKN070 OVC080
     FM201100 05005KT 6SM -RA BKN040 OVC060
      TEMPO 2013/2016 4SM RA SCT015
     FM201600 03007KT 6SM -RA BKN015 OVC040
     FM202200 02005KT P6SM SCT015 BKN025=



000
FTUS42 KILM 200900 AAA
TAFFLO
TAF AMD
KFLO 200912Z 2009/2106 08006KT 6SM -RA OVC070
     FM201100 05005KT 6SM -RA BR BKN040 OVC060
     FM201500 04007KT 6SM -RA BKN020 OVC040
     FM202100 03005KT P6SM SCT020 BKN035=



000
FTUS42 KILM 200500
TAFILM
TAF
KILM 200530Z 2006/2106 04006KT P6SM BKN120
     FM201300 05007KT 6SM -RA BKN040 OVC100
      TEMPO 2014/2017 4SM RA SCT020
     FM201700 03008KT 6SM -RA BKN020 OVC040
     FM202300 02005KT P6SM FEW015 BKN025=



000
FTUS42 KILM 200500
TAFFLO
TAF
KFLO 200530Z 2006/2106 06006KT P6SM BKN100
     FM201100 05005KT 6SM -RA BR BKN040 OVC100
     FM201500 04007KT 6SM -RA BKN020 OVC040
     FM202100 03005KT P6SM SCT020 BKN035=



000
FTUS42 KILM 200500
TAFLBT
TAF
KLBT 200530Z 2006/2106 05005KT P6SM BKN100
     FM201200 05005KT 6SM -RA BR BKN040 OVC100
     FM201600 03007KT 6SM -RA BKN025 OVC040
     FM202100 04005KT P6SM SCT020 BKN035=



000
FTUS42 KILM 200500
TAFMYR
TAF
KMYR 200530Z 2006/2106 03005KT P6SM BKN120
     FM201100 04007KT 6SM -RA BKN040 OVC100
      TEMPO 2013/2016 4SM RA SCT015
     FM201600 01009KT 6SM -RA BKN015 OVC040
     FM202200 02006KT P6SM SCT015 BKN025
      AMD LTD TO CLD VIS AND WIND TIL 201100=



000
FTUS42 KILM 200500
TAFCRE
TAF
KCRE 200530Z 2006/2106 04004KT P6SM BKN120
     FM201100 05005KT 6SM -RA BKN040 OVC100
      TEMPO 2013/2016 4SM RA SCT015
     FM201600 03007KT 6SM -RA BKN015 OVC040
     FM202200 02005KT P6SM SCT015 BKN025=



    US Dept of Commerce
    National Oceanic and Atmospheric Administration
    National Weather Service
    1325 East West Highway
    Silver Spring, MD 20910
    Page Author: NWS Internet Services Team
Disclaimer
Information Quality
Credits
Glossary
Privacy Policy
Freedom of Information Act (FOIA)
About Us
Career Opportunities